sensor_id;sensor_type;location;lat;lon;timestamp;pressure;altitude;pressure_sealevel;temperature;humidity
49759;BME280;35654;46.080;11.118;2023-02-02T00:00:54;99821.84;;;1.04;68.03
49759;BME280;35654;46.080;11.118;2023-02-02T00:03:21;99823.25;;;1.06;68.44
49759;BME280;35654;46.080;11.118;2023-02-02T00:05:48;99821.63;;;1.05;68.01
49759;BME280;35654;46.080;11.118;2023-02-02T00:08:15;99818.78;;;1.00;68.04
49759;BME280;35654;46.080;11.118;2023-02-02T00:10:42;99817.56;;;0.96;68.69
49759;BME280;35654;46.080;11.118;2023-02-02T00:13:08;99813.22;;;0.95;67.80
49759;BME280;35654;46.080;11.118;2023-02-02T00:15:35;99814.47;;;0.93;68.34
49759;BME280;35654;46.080;11.118;2023-02-02T00:18:01;99820.53;;;0.88;68.64
49759;BME280;35654;46.080;11.118;2023-02-02T00:20:28;99824.28;;;0.87;68.66
49759;BME280;35654;46.080;11.118;2023-02-02T00:22:55;99817.50;;;0.78;68.98
49759;BME280;35654;46.080;11.118;2023-02-02T00:25:22;99818.94;;;0.56;69.06
49759;BME280;35654;46.080;11.118;2023-02-02T00:27:48;99818.41;;;0.47;70.14
49759;BME280;35654;46.080;11.118;2023-02-02T00:30:15;99819.84;;;0.50;69.81
49759;BME280;35654;46.080;11.118;2023-02-02T00:32:42;99818.34;;;0.54;70.08
49759;BME280;35654;46.080;11.118;2023-02-02T00:35:09;99824.94;;;0.58;69.65
49759;BME280;35654;46.080;11.118;2023-02-02T00:37:36;99820.75;;;0.62;69.20
49759;BME280;35654;46.080;11.118;2023-02-02T00:40:02;99833.34;;;0.68;68.75
49759;BME280;35654;46.080;11.118;2023-02-02T00:42:29;99826.94;;;0.69;68.84
49759;BME280;35654;46.080;11.118;2023-02-02T00:44:55;99828.81;;;0.69;68.80
49759;BME280;35654;46.080;11.118;2023-02-02T00:47:44;99829.00;;;0.67;69.17
49759;BME280;35654;46.080;11.118;2023-02-02T00:50:13;99818.28;;;0.61;68.68
49759;BME280;35654;46.080;11.118;2023-02-02T00:52:39;99824.78;;;0.53;69.00
49759;BME280;35654;46.080;11.118;2023-02-02T00:55:06;99820.13;;;0.42;70.45
49759;BME280;35654;46.080;11.118;2023-02-02T00:57:33;99826.66;;;0.52;69.93
49759;BME280;35654;46.080;11.118;2023-02-02T00:59:59;99834.06;;;0.57;69.64
49759;BME280;35654;46.080;11.118;2023-02-02T01:02:26;99832.25;;;0.51;69.71
49759;BME280;35654;46.080;11.118;2023-02-02T01:04:53;99835.03;;;0.38;69.92
49759;BME280;35654;46.080;11.118;2023-02-02T01:07:19;99838.97;;;0.42;70.01
49759;BME280;35654;46.080;11.118;2023-02-02T01:09:46;99841.69;;;0.35;71.84
49759;BME280;35654;46.080;11.118;2023-02-02T01:12:13;99850.59;;;0.36;71.67
49759;BME280;35654;46.080;11.118;2023-02-02T01:14:39;99845.38;;;0.41;71.52
49759;BME280;35654;46.080;11.118;2023-02-02T01:17:05;99852.19;;;0.43;71.42
49759;BME280;35654;46.080;11.118;2023-02-02T01:19:32;99850.34;;;0.44;71.49
49759;BME280;35654;46.080;11.118;2023-02-02T01:21:59;99848.91;;;0.41;70.96
49759;BME280;35654;46.080;11.118;2023-02-02T01:24:24;99845.16;;;0.42;71.46
49759;BME280;35654;46.080;11.118;2023-02-02T01:26:51;99847.47;;;0.39;70.65
49759;BME280;35654;46.080;11.118;2023-02-02T01:29:17;99839.09;;;0.22;72.95
49759;BME280;35654;46.080;11.118;2023-02-02T01:31:44;99852.75;;;0.21;73.26
49759;BME280;35654;46.080;11.118;2023-02-02T01:34:11;99845.34;;;0.16;72.26
49759;BME280;35654;46.080;11.118;2023-02-02T01:36:37;99854.47;;;0.09;72.90
49759;BME280;35654;46.080;11.118;2023-02-02T01:39:03;99855.06;;;0.17;73.27
49759;BME280;35654;46.080;11.118;2023-02-02T01:41:30;99852.34;;;0.24;73.28
49759;BME280;35654;46.080;11.118;2023-02-02T01:44:01;99847.97;;;0.23;73.66
49759;BME280;35654;46.080;11.118;2023-02-02T01:46:30;99840.97;;;0.22;73.11
49759;BME280;35654;46.080;11.118;2023-02-02T01:49:12;99844.03;;;0.25;72.93
49759;BME280;35654;46.080;11.118;2023-02-02T01:51:49;99840.28;;;0.26;73.16
49759;BME280;35654;46.080;11.118;2023-02-02T01:54:21;99826.69;;;0.15;72.69
49759;BME280;35654;46.080;11.118;2023-02-02T01:56:49;99837.88;;;0.12;72.96
49759;BME280;35654;46.080;11.118;2023-02-02T01:59:19;99845.34;;;0.16;72.76
49759;BME280;35654;46.080;11.118;2023-02-02T02:01:46;99845.09;;;0.18;73.22
49759;BME280;35654;46.080;11.118;2023-02-02T02:04:13;99837.03;;;0.18;73.21
49759;BME280;35654;46.080;11.118;2023-02-02T02:06:40;99829.78;;;0.18;73.27
49759;BME280;35654;46.080;11.118;2023-02-02T02:09:07;99830.44;;;0.14;73.34
49759;BME280;35654;46.080;11.118;2023-02-02T02:11:34;99828.19;;;0.11;72.68
49759;BME280;35654;46.080;11.118;2023-02-02T02:14:03;99822.41;;;0.07;73.84
49759;BME280;35654;46.080;11.118;2023-02-02T02:34:13;99828.88;;;-0.07;73.97
49759;BME280;35654;46.080;11.118;2023-02-02T02:41:55;99827.47;;;-0.16;74.93
49759;BME280;35654;46.080;11.118;2023-02-02T02:44:24;99827.66;;;-0.11;74.63
49759;BME280;35654;46.080;11.118;2023-02-02T02:46:51;99829.91;;;-0.08;74.53
49759;BME280;35654;46.080;11.118;2023-02-02T02:49:18;99831.34;;;-0.06;74.88
49759;BME280;35654;46.080;11.118;2023-02-02T02:51:53;99835.72;;;-0.05;74.33
49759;BME280;35654;46.080;11.118;2023-02-02T02:54:34;99825.78;;;-0.04;74.51
49759;BME280;35654;46.080;11.118;2023-02-02T03:07:54;99826.69;;;-0.23;75.88
49759;BME280;35654;46.080;11.118;2023-02-02T03:10:25;99826.94;;;-0.31;75.85
49759;BME280;35654;46.080;11.118;2023-02-02T03:12:53;99829.22;;;-0.28;76.06
49759;BME280;35654;46.080;11.118;2023-02-02T03:15:20;99838.72;;;-0.26;75.23
49759;BME280;35654;46.080;11.118;2023-02-02T03:17:47;99837.66;;;-0.25;75.21
49759;BME280;35654;46.080;11.118;2023-02-02T03:20:15;99842.25;;;-0.25;75.13
49759;BME280;35654;46.080;11.118;2023-02-02T03:22:42;99855.06;;;-0.27;75.12
49759;BME280;35654;46.080;11.118;2023-02-02T03:25:09;99857.38;;;-0.31;75.75
49759;BME280;35654;46.080;11.118;2023-02-02T03:27:37;99858.41;;;-0.32;75.96
49759;BME280;35654;46.080;11.118;2023-02-02T03:30:08;99855.53;;;-0.37;76.16
49759;BME280;35654;46.080;11.118;2023-02-02T03:32:36;99847.25;;;-0.42;75.55
49759;BME280;35654;46.080;11.118;2023-02-02T03:35:02;99845.63;;;-0.49;76.22
49759;BME280;35654;46.080;11.118;2023-02-02T03:37:29;99862.19;;;-0.46;76.06
49759;BME280;35654;46.080;11.118;2023-02-02T03:39:56;99850.19;;;-0.50;75.84
49759;BME280;35654;46.080;11.118;2023-02-02T03:42:22;99857.47;;;-0.64;77.20
49759;BME280;35654;46.080;11.118;2023-02-02T03:44:49;99862.88;;;-0.77;78.56
49759;BME280;35654;46.080;11.118;2023-02-02T03:47:16;99874.88;;;-0.79;80.43
49759;BME280;35654;46.080;11.118;2023-02-02T03:49:43;99862.22;;;-0.72;79.11
49759;BME280;35654;46.080;11.118;2023-02-02T03:52:09;99861.63;;;-0.68;78.89
49759;BME280;35654;46.080;11.118;2023-02-02T03:54:36;99853.34;;;-0.66;78.82
49759;BME280;35654;46.080;11.118;2023-02-02T03:57:02;99873.81;;;-0.65;77.93
49759;BME280;35654;46.080;11.118;2023-02-02T03:59:29;99861.22;;;-0.71;77.83
49759;BME280;35654;46.080;11.118;2023-02-02T04:01:55;99851.94;;;-0.88;78.14
49759;BME280;35654;46.080;11.118;2023-02-02T04:04:22;99834.16;;;-0.96;78.93
49759;BME280;35654;46.080;11.118;2023-02-02T04:06:49;99839.31;;;-0.88;79.25
49759;BME280;35654;46.080;11.118;2023-02-02T04:09:15;99835.16;;;-0.84;78.71
49759;BME280;35654;46.080;11.118;2023-02-02T04:11:42;99854.59;;;-0.75;78.79
49759;BME280;35654;46.080;11.118;2023-02-02T04:14:09;99856.03;;;-0.66;78.08
49759;BME280;35654;46.080;11.118;2023-02-02T04:16:36;99851.25;;;-0.64;78.10
49759;BME280;35654;46.080;11.118;2023-02-02T04:19:03;99853.34;;;-0.66;77.75
49759;BME280;35654;46.080;11.118;2023-02-02T04:21:29;99851.47;;;-0.66;78.01
49759;BME280;35654;46.080;11.118;2023-02-02T04:23:56;99866.59;;;-0.65;76.93
49759;BME280;35654;46.080;11.118;2023-02-02T04:26:23;99863.06;;;-0.72;77.17
49759;BME280;35654;46.080;11.118;2023-02-02T04:28:52;99870.34;;;-0.79;77.38
49759;BME280;35654;46.080;11.118;2023-02-02T04:31:18;99870.09;;;-0.77;77.54
49759;BME280;35654;46.080;11.118;2023-02-02T04:33:45;99867.41;;;-0.77;77.96
49759;BME280;35654;46.080;11.118;2023-02-02T04:36:12;99873.00;;;-0.72;77.87
49759;BME280;35654;46.080;11.118;2023-02-02T04:38:38;99874.44;;;-0.70;77.53
49759;BME280;35654;46.080;11.118;2023-02-02T04:41:09;99876.09;;;-0.69;77.67
49759;BME280;35654;46.080;11.118;2023-02-02T04:43:36;99873.81;;;-0.72;77.33
49759;BME280;35654;46.080;11.118;2023-02-02T04:46:04;99873.00;;;-0.72;77.71
49759;BME280;35654;46.080;11.118;2023-02-02T04:48:30;99869.69;;;-0.74;77.31
49759;BME280;35654;46.080;11.118;2023-02-02T04:51:01;99872.38;;;-0.74;77.33
49759;BME280;35654;46.080;11.118;2023-02-02T04:53:28;99872.59;;;-0.82;77.60
49759;BME280;35654;46.080;11.118;2023-02-02T04:55:54;99868.28;;;-0.96;79.58
49759;BME280;35654;46.080;11.118;2023-02-02T04:58:21;99878.63;;;-1.00;79.87
49759;BME280;35654;46.080;11.118;2023-02-02T05:00:47;99881.09;;;-0.92;79.93
49759;BME280;35654;46.080;11.118;2023-02-02T05:03:14;99895.56;;;-0.86;79.24
49759;BME280;35654;46.080;11.118;2023-02-02T05:05:41;99904.03;;;-0.89;78.80
49759;BME280;35654;46.080;11.118;2023-02-02T05:08:08;99901.16;;;-0.94;79.13
49759;BME280;35654;46.080;11.118;2023-02-02T05:10:40;99900.13;;;-0.93;78.68
49759;BME280;35654;46.080;11.118;2023-02-02T05:13:07;99901.97;;;-0.87;79.02
49759;BME280;35654;46.080;11.118;2023-02-02T05:15:34;99892.06;;;-0.87;79.10
49759;BME280;35654;46.080;11.118;2023-02-02T05:18:01;99905.69;;;-0.95;79.92
49759;BME280;35654;46.080;11.118;2023-02-02T05:20:28;99908.41;;;-1.01;80.73
49759;BME280;35654;46.080;11.118;2023-02-02T05:22:54;99904.28;;;-1.04;80.78
49759;BME280;35654;46.080;11.118;2023-02-02T05:25:19;99912.34;;;-1.04;79.65
49759;BME280;35654;46.080;11.118;2023-02-02T05:27:46;99909.44;;;-1.15;79.01
49759;BME280;35654;46.080;11.118;2023-02-02T05:30:12;99910.66;;;-1.25;79.15
49759;BME280;35654;46.080;11.118;2023-02-02T05:32:39;99903.03;;;-1.21;79.20
49759;BME280;35654;46.080;11.118;2023-02-02T05:35:06;99915.22;;;-1.12;78.66
49759;BME280;35654;46.080;11.118;2023-02-02T05:37:32;99917.28;;;-1.01;78.89
49759;BME280;35654;46.080;11.118;2023-02-02T05:39:59;99918.31;;;-0.95;78.87
49759;BME280;35654;46.080;11.118;2023-02-02T05:42:25;99910.88;;;-0.93;78.58
49759;BME280;35654;46.080;11.118;2023-02-02T05:44:52;99909.44;;;-0.96;78.87
49759;BME280;35654;46.080;11.118;2023-02-02T05:47:18;99916.06;;;-0.98;78.34
49759;BME280;35654;46.080;11.118;2023-02-02T05:49:45;99922.66;;;-1.01;78.14
49759;BME280;35654;46.080;11.118;2023-02-02T05:52:15;99919.75;;;-1.06;78.51
49759;BME280;35654;46.080;11.118;2023-02-02T05:54:43;99921.22;;;-1.03;78.09
49759;BME280;35654;46.080;11.118;2023-02-02T05:57:10;99920.59;;;-1.05;78.98
49759;BME280;35654;46.080;11.118;2023-02-02T05:59:36;99923.09;;;-1.04;79.31
49759;BME280;35654;46.080;11.118;2023-02-02T06:02:03;99935.47;;;-1.16;79.49
49759;BME280;35654;46.080;11.118;2023-02-02T06:04:28;99951.97;;;-1.26;80.11
49759;BME280;35654;46.080;11.118;2023-02-02T06:06:55;99934.63;;;-1.36;79.93
49759;BME280;35654;46.080;11.118;2023-02-02T06:09:21;99927.19;;;-1.34;80.06
49759;BME280;35654;46.080;11.118;2023-02-02T06:11:49;99930.47;;;-1.26;79.88
49759;BME280;35654;46.080;11.118;2023-02-02T06:14:16;99946.44;;;-1.17;79.47
49759;BME280;35654;46.080;11.118;2023-02-02T06:16:42;99939.59;;;-1.13;79.55
49759;BME280;35654;46.080;11.118;2023-02-02T06:19:08;99941.25;;;-1.06;79.92
49759;BME280;35654;46.080;11.118;2023-02-02T06:21:35;99944.78;;;-1.05;79.88
49759;BME280;35654;46.080;11.118;2023-02-02T06:24:01;99943.13;;;-1.00;79.73
49759;BME280;35654;46.080;11.118;2023-02-02T06:26:28;99948.31;;;-0.98;78.60
49759;BME280;35654;46.080;11.118;2023-02-02T06:28:55;99941.91;;;-1.04;78.39
49759;BME280;35654;46.080;11.118;2023-02-02T06:31:21;99950.78;;;-1.03;79.05
49759;BME280;35654;46.080;11.118;2023-02-02T06:33:51;99958.22;;;-0.99;79.27
49759;BME280;35654;46.080;11.118;2023-02-02T06:36:18;99959.66;;;-0.96;79.36
49759;BME280;35654;46.080;11.118;2023-02-02T06:38:48;99966.31;;;-0.92;79.16
49759;BME280;35654;46.080;11.118;2023-02-02T06:41:14;99964.03;;;-0.95;79.48
49759;BME280;35654;46.080;11.118;2023-02-02T06:43:41;99966.50;;;-0.94;79.58
49759;BME280;35654;46.080;11.118;2023-02-02T06:46:08;99971.03;;;-0.88;79.45
49759;BME280;35654;46.080;11.118;2023-02-02T06:48:34;99975.19;;;-0.85;79.10
49759;BME280;35654;46.080;11.118;2023-02-02T06:51:01;99966.09;;;-0.91;78.77
49759;BME280;35654;46.080;11.118;2023-02-02T06:53:28;99966.69;;;-0.89;78.40
49759;BME280;35654;46.080;11.118;2023-02-02T06:56:05;99971.66;;;-0.86;78.70
49759;BME280;35654;46.080;11.118;2023-02-02T06:58:32;99977.25;;;-0.81;78.58
49759;BME280;35654;46.080;11.118;2023-02-02T07:01:03;99991.09;;;-0.77;78.41
49759;BME280;35654;46.080;11.118;2023-02-02T07:03:30;99990.06;;;-0.70;77.46
49759;BME280;35654;46.080;11.118;2023-02-02T07:05:57;99983.88;;;-0.70;77.52
49759;BME280;35654;46.080;11.118;2023-02-02T07:08:22;99997.31;;;-0.70;77.74
49759;BME280;35654;46.080;11.118;2023-02-02T07:10:49;99995.03;;;-0.73;78.29
49759;BME280;35654;46.080;11.118;2023-02-02T07:13:14;99991.31;;;-0.72;77.91
49759;BME280;35654;46.080;11.118;2023-02-02T07:15:40;99999.38;;;-0.66;77.69
49759;BME280;35654;46.080;11.118;2023-02-02T07:18:07;99996.91;;;-0.74;77.53
49759;BME280;35654;46.080;11.118;2023-02-02T07:20:34;100003.09;;;-0.80;77.54
49759;BME280;35654;46.080;11.118;2023-02-02T07:23:01;100007.44;;;-0.72;77.92
49759;BME280;35654;46.080;11.118;2023-02-02T07:25:28;100015.50;;;-0.66;77.45
49759;BME280;35654;46.080;11.118;2023-02-02T07:27:54;99998.34;;;-0.58;77.54
49759;BME280;35654;46.080;11.118;2023-02-02T07:30:21;100006.84;;;-0.48;76.89
49759;BME280;35654;46.080;11.118;2023-02-02T07:32:47;100006.84;;;-0.48;76.75
49759;BME280;35654;46.080;11.118;2023-02-02T07:35:15;100013.66;;;-0.45;76.35
49759;BME280;35654;46.080;11.118;2023-02-02T07:37:41;100014.03;;;-0.42;76.48
49759;BME280;35654;46.080;11.118;2023-02-02T07:40:08;100020.25;;;-0.41;76.86
49759;BME280;35654;46.080;11.118;2023-02-02T07:42:35;100013.84;;;-0.47;76.51
49759;BME280;35654;46.080;11.118;2023-02-02T07:45:02;100011.97;;;-0.53;77.45
49759;BME280;35654;46.080;11.118;2023-02-02T07:47:29;100028.31;;;-0.41;76.82
49759;BME280;35654;46.080;11.118;2023-02-02T07:49:56;100024.19;;;-0.37;77.17
49759;BME280;35654;46.080;11.118;2023-02-02T07:52:22;100025.41;;;-0.33;76.79
49759;BME280;35654;46.080;11.118;2023-02-02T07:54:49;100012.19;;;-0.35;76.51
49759;BME280;35654;46.080;11.118;2023-02-02T07:57:15;100011.16;;;-0.34;76.89
49759;BME280;35654;46.080;11.118;2023-02-02T07:59:42;100006.59;;;-0.20;76.17
49759;BME280;35654;46.080;11.118;2023-02-02T08:02:09;100005.28;;;-0.05;75.39
49759;BME280;35654;46.080;11.118;2023-02-02T08:04:35;100007.09;;;0.15;74.63
49759;BME280;35654;46.080;11.118;2023-02-02T08:07:02;100000.63;;;0.29;73.72
49759;BME280;35654;46.080;11.118;2023-02-02T08:09:28;100000.22;;;0.32;73.45
49759;BME280;35654;46.080;11.118;2023-02-02T08:11:55;100011.59;;;0.34;73.08
49759;BME280;35654;46.080;11.118;2023-02-02T08:14:27;100003.06;;;0.43;73.19
49759;BME280;35654;46.080;11.118;2023-02-02T08:16:54;99997.84;;;0.55;71.20
49759;BME280;35654;46.080;11.118;2023-02-02T08:19:20;100014.59;;;0.64;70.17
49759;BME280;35654;46.080;11.118;2023-02-02T08:21:47;99999.56;;;0.81;69.70
49759;BME280;35654;46.080;11.118;2023-02-02T08:24:13;100005.47;;;0.96;69.12
49759;BME280;35654;46.080;11.118;2023-02-02T08:26:40;99997.78;;;0.99;69.06
49759;BME280;35654;46.080;11.118;2023-02-02T08:29:06;100009.72;;;1.10;69.31
49759;BME280;35654;46.080;11.118;2023-02-02T08:31:36;99995.38;;;1.16;68.59
49759;BME280;35654;46.080;11.118;2023-02-02T08:34:03;99990.97;;;1.22;68.08
49759;BME280;35654;46.080;11.118;2023-02-02T08:36:30;99996.50;;;1.33;67.84
49759;BME280;35654;46.080;11.118;2023-02-02T08:39:00;99999.06;;;1.46;67.30
49759;BME280;35654;46.080;11.118;2023-02-02T08:41:26;100011.34;;;1.67;66.07
49759;BME280;35654;46.080;11.118;2023-02-02T08:43:53;99991.50;;;1.80;64.18
49759;BME280;35654;46.080;11.118;2023-02-02T08:46:21;100000.53;;;1.92;63.04
49759;BME280;35654;46.080;11.118;2023-02-02T08:48:47;99992.28;;;2.05;61.91
49759;BME280;35654;46.080;11.118;2023-02-02T08:51:15;100001.28;;;2.17;60.55
49759;BME280;35654;46.080;11.118;2023-02-02T08:53:41;99997.13;;;2.32;58.92
49759;BME280;35654;46.080;11.118;2023-02-02T08:56:09;99994.88;;;2.48;58.37
49759;BME280;35654;46.080;11.118;2023-02-02T08:58:36;100000.44;;;2.53;57.70
49759;BME280;35654;46.080;11.118;2023-02-02T09:01:12;99992.97;;;2.66;56.61
49759;BME280;35654;46.080;11.118;2023-02-02T09:03:39;100002.81;;;2.79;56.19
49759;BME280;35654;46.080;11.118;2023-02-02T09:06:10;99996.75;;;2.95;55.34
49759;BME280;35654;46.080;11.118;2023-02-02T09:08:37;99998.88;;;3.05;55.42
49759;BME280;35654;46.080;11.118;2023-02-02T09:11:13;100004.22;;;3.23;54.49
49759;BME280;35654;46.080;11.118;2023-02-02T09:13:41;99996.63;;;3.43;53.99
49759;BME280;35654;46.080;11.118;2023-02-02T09:16:08;100001.06;;;3.49;53.74
49759;BME280;35654;46.080;11.118;2023-02-02T09:18:35;100007.13;;;3.63;53.47
49759;BME280;35654;46.080;11.118;2023-02-02T09:21:03;100013.13;;;3.76;52.39
49759;BME280;35654;46.080;11.118;2023-02-02T09:23:31;99991.56;;;3.93;51.87
49759;BME280;35654;46.080;11.118;2023-02-02T09:26:07;99988.63;;;3.94;51.05
49759;BME280;35654;46.080;11.118;2023-02-02T09:28:33;99998.16;;;4.08;51.26
49759;BME280;35654;46.080;11.118;2023-02-02T09:31:03;99993.75;;;4.19;51.02
49759;BME280;35654;46.080;11.118;2023-02-02T09:33:30;99995.53;;;4.25;50.83
49759;BME280;35654;46.080;11.118;2023-02-02T09:36:02;99996.56;;;4.36;49.74
49759;BME280;35654;46.080;11.118;2023-02-02T09:38:30;100000.94;;;4.37;49.94
49759;BME280;35654;46.080;11.118;2023-02-02T09:40:57;100004.56;;;4.42;49.92
49759;BME280;35654;46.080;11.118;2023-02-02T09:46:10;99997.00;;;4.56;48.74
49759;BME280;35654;46.080;11.118;2023-02-02T09:48:57;99992.94;;;4.70;48.35
49759;BME280;35654;46.080;11.118;2023-02-02T09:51:26;99992.97;;;4.87;48.35
49759;BME280;35654;46.080;11.118;2023-02-02T09:53:55;99996.22;;;5.00;47.49
49759;BME280;35654;46.080;11.118;2023-02-02T09:56:33;100005.78;;;5.19;47.00
49759;BME280;35654;46.080;11.118;2023-02-02T09:59:02;99990.34;;;5.37;45.54
49759;BME280;35654;46.080;11.118;2023-02-02T10:01:30;99987.34;;;5.50;45.49
49759;BME280;35654;46.080;11.118;2023-02-02T10:06:45;99986.91;;;5.74;45.27
49759;BME280;35654;46.080;11.118;2023-02-02T10:17:46;99995.44;;;6.60;43.39
49759;BME280;35654;46.080;11.118;2023-02-02T10:20:23;99980.56;;;6.67;43.60
49759;BME280;35654;46.080;11.118;2023-02-02T10:22:52;99981.56;;;6.83;42.61
49759;BME280;35654;46.080;11.118;2023-02-02T10:25:21;99979.22;;;6.91;41.79
49759;BME280;35654;46.080;11.118;2023-02-02T10:27:58;99973.53;;;6.98;41.39
49759;BME280;35654;46.080;11.118;2023-02-02T10:30:36;99974.22;;;7.10;40.35
49759;BME280;35654;46.080;11.118;2023-02-02T10:33:09;99970.88;;;7.30;39.38
49759;BME280;35654;46.080;11.118;2023-02-02T10:35:59;99966.97;;;7.52;39.46
49759;BME280;35654;46.080;11.118;2023-02-02T10:41:33;99967.28;;;8.35;36.99
49759;BME280;35654;46.080;11.118;2023-02-02T10:44:16;99962.91;;;9.76;35.02
49759;BME280;35654;46.080;11.118;2023-02-02T10:46:49;99958.94;;;14.27;27.96
49759;BME280;35654;46.080;11.118;2023-02-02T10:51:44;99945.56;;;20.15;20.88
49759;BME280;35654;46.080;11.118;2023-02-02T10:54:21;99951.22;;;21.80;18.91
49759;BME280;35654;46.080;11.118;2023-02-02T10:56:51;99947.50;;;23.13;17.78
49759;BME280;35654;46.080;11.118;2023-02-02T10:59:23;99934.66;;;21.71;18.18
49759;BME280;35654;46.080;11.118;2023-02-02T11:01:52;99936.56;;;21.15;18.68
49759;BME280;35654;46.080;11.118;2023-02-02T11:04:18;99937.81;;;22.29;17.79
49759;BME280;35654;46.080;11.118;2023-02-02T11:07:04;99924.09;;;20.04;19.28
49759;BME280;35654;46.080;11.118;2023-02-02T11:09:33;99917.22;;;20.82;18.56
49759;BME280;35654;46.080;11.118;2023-02-02T11:12:15;99913.03;;;21.13;18.42
49759;BME280;35654;46.080;11.118;2023-02-02T11:15:07;99897.50;;;20.63;18.74
49759;BME280;35654;46.080;11.118;2023-02-02T11:17:32;99888.66;;;20.85;18.69
49759;BME280;35654;46.080;11.118;2023-02-02T11:19:58;99895.06;;;22.56;17.11
49759;BME280;35654;46.080;11.118;2023-02-02T11:22:35;99888.53;;;23.18;16.54
49759;BME280;35654;46.080;11.118;2023-02-02T11:25:03;99887.44;;;23.80;16.38
49759;BME280;35654;46.080;11.118;2023-02-02T11:27:31;99883.88;;;24.74;15.69
49759;BME280;35654;46.080;11.118;2023-02-02T11:30:00;99878.50;;;25.77;14.30
49759;BME280;35654;46.080;11.118;2023-02-02T11:32:33;99875.38;;;25.49;14.97
49759;BME280;35654;46.080;11.118;2023-02-02T11:42:55;99848.88;;;25.80;13.98
49759;BME280;35654;46.080;11.118;2023-02-02T11:45:29;99837.75;;;26.82;13.85
49759;BME280;35654;46.080;11.118;2023-02-02T11:47:59;99833.78;;;23.52;15.74
49759;BME280;35654;46.080;11.118;2023-02-02T11:50:25;99827.69;;;25.49;14.62
49759;BME280;35654;46.080;11.118;2023-02-02T11:52:52;99823.88;;;25.64;14.30
49759;BME280;35654;46.080;11.118;2023-02-02T11:55:22;99816.75;;;25.40;14.76
49759;BME280;35654;46.080;11.118;2023-02-02T12:00:33;99804.44;;;26.26;14.05
49759;BME280;35654;46.080;11.118;2023-02-02T12:03:21;99805.94;;;24.76;15.25
49759;BME280;35654;46.080;11.118;2023-02-02T12:05:48;99800.50;;;25.20;14.85
49759;BME280;35654;46.080;11.118;2023-02-02T12:08:15;99797.94;;;24.48;15.62
49759;BME280;35654;46.080;11.118;2023-02-02T12:11:03;99783.22;;;26.93;13.82
49759;BME280;35654;46.080;11.118;2023-02-02T12:13:42;99769.00;;;26.65;13.80
49759;BME280;35654;46.080;11.118;2023-02-02T12:21:06;99768.66;;;27.92;13.08
49759;BME280;35654;46.080;11.118;2023-02-02T12:26:31;99750.50;;;27.75;12.93
49759;BME280;35654;46.080;11.118;2023-02-02T12:50:23;99725.94;;;26.43;13.72
49759;BME280;35654;46.080;11.118;2023-02-02T12:52:55;99716.09;;;26.13;14.09
49759;BME280;35654;46.080;11.118;2023-02-02T13:01:09;99701.59;;;29.09;12.36
49759;BME280;35654;46.080;11.118;2023-02-02T13:11:54;99680.06;;;28.63;12.51
49759;BME280;35654;46.080;11.118;2023-02-02T13:14:33;99681.03;;;29.08;12.40
49759;BME280;35654;46.080;11.118;2023-02-02T13:17:12;99674.69;;;26.68;13.62
49759;BME280;35654;46.080;11.118;2023-02-02T13:19:40;99668.50;;;27.69;13.09
49759;BME280;35654;46.080;11.118;2023-02-02T13:22:09;99672.22;;;26.48;13.66
49759;BME280;35654;46.080;11.118;2023-02-02T13:24:40;99664.78;;;25.61;14.54
49759;BME280;35654;46.080;11.118;2023-02-02T13:27:09;99668.19;;;26.49;14.12
49759;BME280;35654;46.080;11.118;2023-02-02T13:29:42;99656.88;;;25.30;15.07
49759;BME280;35654;46.080;11.118;2023-02-02T13:37:41;99652.41;;;28.09;13.38
49759;BME280;35654;46.080;11.118;2023-02-02T13:59:19;99650.13;;;28.87;12.62
49759;BME280;35654;46.080;11.118;2023-02-02T14:01:51;99649.19;;;29.70;12.10
49759;BME280;35654;46.080;11.118;2023-02-02T14:04:20;99646.84;;;29.03;12.49
49759;BME280;35654;46.080;11.118;2023-02-02T14:06:53;99649.88;;;28.64;12.29
49759;BME280;35654;46.080;11.118;2023-02-02T14:09:24;99658.88;;;26.31;13.69
49759;BME280;35654;46.080;11.118;2023-02-02T14:11:54;99652.88;;;27.58;13.26
49759;BME280;35654;46.080;11.118;2023-02-02T14:14:22;99656.75;;;26.93;13.63
49759;BME280;35654;46.080;11.118;2023-02-02T14:19:47;99647.66;;;26.31;14.44
49759;BME280;35654;46.080;11.118;2023-02-02T14:22:18;99650.41;;;27.32;13.79
49759;BME280;35654;46.080;11.118;2023-02-02T14:24:47;99656.47;;;28.08;13.09
49759;BME280;35654;46.080;11.118;2023-02-02T14:29:59;99665.41;;;25.88;14.11
49759;BME280;35654;46.080;11.118;2023-02-02T14:32:28;99663.22;;;26.15;13.92
49759;BME280;35654;46.080;11.118;2023-02-02T14:34:58;99668.16;;;23.81;15.53
49759;BME280;35654;46.080;11.118;2023-02-02T14:50:52;99685.72;;;19.40;19.83
49759;BME280;35654;46.080;11.118;2023-02-02T14:53:26;99696.47;;;18.02;21.41
49759;BME280;35654;46.080;11.118;2023-02-02T14:58:54;99705.22;;;15.18;25.45
49759;BME280;35654;46.080;11.118;2023-02-02T15:01:26;99701.50;;;14.47;26.08
49759;BME280;35654;46.080;11.118;2023-02-02T15:06:38;99706.78;;;13.58;27.97
49759;BME280;35654;46.080;11.118;2023-02-02T15:25:48;99712.66;;;12.27;30.67
49759;BME280;35654;46.080;11.118;2023-02-02T15:28:31;99722.50;;;12.28;30.15
49759;BME280;35654;46.080;11.118;2023-02-02T15:33:46;99730.97;;;12.32;30.64
49759;BME280;35654;46.080;11.118;2023-02-02T15:36:26;99729.66;;;12.11;31.55
49759;BME280;35654;46.080;11.118;2023-02-02T15:38:54;99728.06;;;11.86;31.63
49759;BME280;35654;46.080;11.118;2023-02-02T15:41:24;99731.38;;;11.59;32.28
49759;BME280;35654;46.080;11.118;2023-02-02T15:43:52;99738.50;;;11.37;32.72
49759;BME280;35654;46.080;11.118;2023-02-02T15:46:20;99740.22;;;11.33;32.85
49759;BME280;35654;46.080;11.118;2023-02-02T15:51:36;99754.91;;;10.84;34.01
49759;BME280;35654;46.080;11.118;2023-02-02T15:54:17;99758.72;;;10.88;34.14
49759;BME280;35654;46.080;11.118;2023-02-02T15:56:45;99766.84;;;10.98;34.19
49759;BME280;35654;46.080;11.118;2023-02-02T15:59:19;99768.03;;;10.87;34.57